sensor_id;sensor_type;location;lat;lon;timestamp;P1;P2;P0
46681;PMS5003;34101;53.430;-2.224;2023-04-25T00:01:02;7;7;
46681;PMS5003;34101;53.430;-2.224;2023-04-25T00:03:29;7;6;
46681;PMS5003;34101;53.430;-2.224;2023-04-25T00:05:57;6;6;
46681;PMS5003;34101;53.430;-2.224;2023-04-25T00:08:24;5;5;
46681;PMS5003;34101;53.430;-2.224;2023-04-25T00:10:52;7;7;
46681;PMS5003;34101;53.430;-2.224;2023-04-25T00:13:19;7;7;
46681;PMS5003;34101;53.430;-2.224;2023-04-25T00:15:47;6;6;
46681;PMS5003;34101;53.430;-2.224;2023-04-25T00:18:14;6;5;
46681;PMS5003;34101;53.430;-2.224;2023-04-25T00:20:42;7;6;
46681;PMS5003;34101;53.430;-2.224;2023-04-25T00:23:09;5;5;
46681;PMS5003;34101;53.430;-2.224;2023-04-25T00:25:36;6;6;
46681;PMS5003;34101;53.430;-2.224;2023-04-25T00:28:09;7;6;
46681;PMS5003;34101;53.430;-2.224;2023-04-25T00:30:38;7;6;
46681;PMS5003;34101;53.430;-2.224;2023-04-25T00:33:05;6;6;
46681;PMS5003;34101;53.430;-2.224;2023-04-25T00:35:32;4;4;
46681;PMS5003;34101;53.430;-2.224;2023-04-25T00:38:00;7;6;
46681;PMS5003;34101;53.430;-2.224;2023-04-25T00:40:27;8;8;
46681;PMS5003;34101;53.430;-2.224;2023-04-25T00:42:55;6;6;
46681;PMS5003;34101;53.430;-2.224;2023-04-25T00:45:22;4;4;
46681;PMS5003;34101;53.430;-2.224;2023-04-25T00:47:55;7;7;
46681;PMS5003;34101;53.430;-2.224;2023-04-25T00:50:22;6;6;
46681;PMS5003;34101;53.430;-2.224;2023-04-25T00:52:50;6;5;
46681;PMS5003;34101;53.430;-2.224;2023-04-25T00:55:17;6;6;
46681;PMS5003;34101;53.430;-2.224;2023-04-25T00:57:46;6;5;
46681;PMS5003;34101;53.430;-2.224;2023-04-25T01:00:15;8;6;
46681;PMS5003;34101;53.430;-2.224;2023-04-25T01:02:43;6;4;
46681;PMS5003;34101;53.430;-2.224;2023-04-25T01:05:12;7;7;
46681;PMS5003;34101;53.430;-2.224;2023-04-25T01:07:39;7;7;
46681;PMS5003;34101;53.430;-2.224;2023-04-25T01:10:08;7;6;
46681;PMS5003;34101;53.430;-2.224;2023-04-25T01:12:36;6;4;
46681;PMS5003;34101;53.430;-2.224;2023-04-25T01:15:04;6;6;
46681;PMS5003;34101;53.430;-2.224;2023-04-25T01:17:32;5;5;
46681;PMS5003;34101;53.430;-2.224;2023-04-25T01:20:02;8;6;
46681;PMS5003;34101;53.430;-2.224;2023-04-25T01:22:30;5;5;
46681;PMS5003;34101;53.430;-2.224;2023-04-25T01:24:58;7;6;
46681;PMS5003;34101;53.430;-2.224;2023-04-25T01:27:26;6;6;
46681;PMS5003;34101;53.430;-2.224;2023-04-25T01:29:55;4;4;
46681;PMS5003;34101;53.430;-2.224;2023-04-25T01:32:23;7;7;
46681;PMS5003;34101;53.430;-2.224;2023-04-25T01:34:50;6;6;
46681;PMS5003;34101;53.430;-2.224;2023-04-25T01:37:18;6;6;
46681;PMS5003;34101;53.430;-2.224;2023-04-25T01:39:46;10;5;
46681;PMS5003;34101;53.430;-2.224;2023-04-25T01:42:14;6;6;
46681;PMS5003;34101;53.430;-2.224;2023-04-25T01:44:41;10;7;
46681;PMS5003;34101;53.430;-2.224;2023-04-25T01:47:09;6;6;
46681;PMS5003;34101;53.430;-2.224;2023-04-25T01:49:36;6;6;
46681;PMS5003;34101;53.430;-2.224;2023-04-25T01:52:04;10;7;
46681;PMS5003;34101;53.430;-2.224;2023-04-25T01:54:32;9;7;
46681;PMS5003;34101;53.430;-2.224;2023-04-25T01:57:00;9;6;
46681;PMS5003;34101;53.430;-2.224;2023-04-25T01:59:28;7;7;
46681;PMS5003;34101;53.430;-2.224;2023-04-25T02:01:55;7;7;
46681;PMS5003;34101;53.430;-2.224;2023-04-25T02:04:23;9;7;
46681;PMS5003;34101;53.430;-2.224;2023-04-25T02:06:51;9;5;
46681;PMS5003;34101;53.430;-2.224;2023-04-25T02:09:18;6;6;
46681;PMS5003;34101;53.430;-2.224;2023-04-25T02:11:46;10;6;
46681;PMS5003;34101;53.430;-2.224;2023-04-25T02:14:14;9;7;
46681;PMS5003;34101;53.430;-2.224;2023-04-25T02:16:42;6;6;
46681;PMS5003;34101;53.430;-2.224;2023-04-25T02:19:11;7;7;
46681;PMS5003;34101;53.430;-2.224;2023-04-25T02:21:39;6;6;
46681;PMS5003;34101;53.430;-2.224;2023-04-25T02:24:06;10;7;
46681;PMS5003;34101;53.430;-2.224;2023-04-25T02:26:34;7;6;
46681;PMS5003;34101;53.430;-2.224;2023-04-25T02:29:02;6;6;
46681;PMS5003;34101;53.430;-2.224;2023-04-25T02:31:30;10;9;
46681;PMS5003;34101;53.430;-2.224;2023-04-25T02:33:57;11;6;
46681;PMS5003;34101;53.430;-2.224;2023-04-25T02:36:25;6;5;
46681;PMS5003;34101;53.430;-2.224;2023-04-25T02:38:52;7;7;
46681;PMS5003;34101;53.430;-2.224;2023-04-25T02:41:20;7;7;
46681;PMS5003;34101;53.430;-2.224;2023-04-25T02:43:48;7;7;
46681;PMS5003;34101;53.430;-2.224;2023-04-25T02:46:16;7;7;
46681;PMS5003;34101;53.430;-2.224;2023-04-25T02:48:43;9;6;
46681;PMS5003;34101;53.430;-2.224;2023-04-25T02:51:11;9;6;
46681;PMS5003;34101;53.430;-2.224;2023-04-25T02:53:38;10;10;
46681;PMS5003;34101;53.430;-2.224;2023-04-25T02:56:05;7;7;
46681;PMS5003;34101;53.430;-2.224;2023-04-25T02:58:33;7;6;
46681;PMS5003;34101;53.430;-2.224;2023-04-25T03:01:01;10;10;
46681;PMS5003;34101;53.430;-2.224;2023-04-25T03:03:29;8;8;
46681;PMS5003;34101;53.430;-2.224;2023-04-25T03:05:57;5;5;
46681;PMS5003;34101;53.430;-2.224;2023-04-25T03:08:25;10;6;
46681;PMS5003;34101;53.430;-2.224;2023-04-25T03:10:53;8;8;
46681;PMS5003;34101;53.430;-2.224;2023-04-25T03:13:21;6;6;
46681;PMS5003;34101;53.430;-2.224;2023-04-25T03:15:49;6;6;
46681;PMS5003;34101;53.430;-2.224;2023-04-25T03:18:16;6;6;
46681;PMS5003;34101;53.430;-2.224;2023-04-25T03:20:44;9;6;
46681;PMS5003;34101;53.430;-2.224;2023-04-25T03:23:12;6;6;
46681;PMS5003;34101;53.430;-2.224;2023-04-25T03:25:39;8;8;
46681;PMS5003;34101;53.430;-2.224;2023-04-25T03:28:06;6;6;
46681;PMS5003;34101;53.430;-2.224;2023-04-25T03:30:34;8;6;
46681;PMS5003;34101;53.430;-2.224;2023-04-25T03:33:01;8;8;
46681;PMS5003;34101;53.430;-2.224;2023-04-25T03:35:29;5;5;
46681;PMS5003;34101;53.430;-2.224;2023-04-25T03:37:56;5;5;
46681;PMS5003;34101;53.430;-2.224;2023-04-25T03:40:24;8;5;
46681;PMS5003;34101;53.430;-2.224;2023-04-25T03:42:57;4;4;
46681;PMS5003;34101;53.430;-2.224;2023-04-25T03:45:24;6;5;
46681;PMS5003;34101;53.430;-2.224;2023-04-25T03:47:51;5;5;
46681;PMS5003;34101;53.430;-2.224;2023-04-25T03:50:19;10;9;
46681;PMS5003;34101;53.430;-2.224;2023-04-25T03:52:46;8;5;
46681;PMS5003;34101;53.430;-2.224;2023-04-25T03:55:14;6;6;
46681;PMS5003;34101;53.430;-2.224;2023-04-25T03:57:41;6;6;
46681;PMS5003;34101;53.430;-2.224;2023-04-25T04:00:09;5;5;
46681;PMS5003;34101;53.430;-2.224;2023-04-25T04:02:37;6;6;
46681;PMS5003;34101;53.430;-2.224;2023-04-25T04:05:05;5;5;
46681;PMS5003;34101;53.430;-2.224;2023-04-25T04:07:32;3;3;
46681;PMS5003;34101;53.430;-2.224;2023-04-25T04:10:00;5;5;
46681;PMS5003;34101;53.430;-2.224;2023-04-25T04:12:27;6;6;
46681;PMS5003;34101;53.430;-2.224;2023-04-25T04:14:55;6;6;
46681;PMS5003;34101;53.430;-2.224;2023-04-25T04:17:22;6;6;
46681;PMS5003;34101;53.430;-2.224;2023-04-25T04:19:49;5;5;
46681;PMS5003;34101;53.430;-2.224;2023-04-25T04:22:17;7;7;
46681;PMS5003;34101;53.430;-2.224;2023-04-25T04:24:44;6;6;
46681;PMS5003;34101;53.430;-2.224;2023-04-25T04:27:12;7;7;
46681;PMS5003;34101;53.430;-2.224;2023-04-25T04:29:39;6;6;
46681;PMS5003;34101;53.430;-2.224;2023-04-25T04:32:07;10;7;
46681;PMS5003;34101;53.430;-2.224;2023-04-25T04:34:34;7;7;
46681;PMS5003;34101;53.430;-2.224;2023-04-25T04:37:02;7;7;
46681;PMS5003;34101;53.430;-2.224;2023-04-25T04:39:29;5;4;
46681;PMS5003;34101;53.430;-2.224;2023-04-25T04:41:57;9;9;
46681;PMS5003;34101;53.430;-2.224;2023-04-25T04:44:25;8;8;
46681;PMS5003;34101;53.430;-2.224;2023-04-25T04:46:53;7;7;
46681;PMS5003;34101;53.430;-2.224;2023-04-25T04:49:21;7;7;
46681;PMS5003;34101;53.430;-2.224;2023-04-25T04:51:48;5;5;
46681;PMS5003;34101;53.430;-2.224;2023-04-25T04:54:16;8;8;
46681;PMS5003;34101;53.430;-2.224;2023-04-25T04:56:43;8;8;
46681;PMS5003;34101;53.430;-2.224;2023-04-25T04:59:11;10;8;
46681;PMS5003;34101;53.430;-2.224;2023-04-25T05:01:38;7;7;
46681;PMS5003;34101;53.430;-2.224;2023-04-25T05:04:06;9;9;
46681;PMS5003;34101;53.430;-2.224;2023-04-25T05:06:33;7;7;
46681;PMS5003;34101;53.430;-2.224;2023-04-25T05:09:00;8;8;
46681;PMS5003;34101;53.430;-2.224;2023-04-25T05:11:28;7;5;
46681;PMS5003;34101;53.430;-2.224;2023-04-25T05:13:56;5;5;
46681;PMS5003;34101;53.430;-2.224;2023-04-25T05:16:23;8;8;
46681;PMS5003;34101;53.430;-2.224;2023-04-25T05:18:51;8;7;
46681;PMS5003;34101;53.430;-2.224;2023-04-25T05:21:18;8;7;
46681;PMS5003;34101;53.430;-2.224;2023-04-25T05:23:46;12;9;
46681;PMS5003;34101;53.430;-2.224;2023-04-25T05:26:13;8;7;
46681;PMS5003;34101;53.430;-2.224;2023-04-25T05:28:41;4;4;
46681;PMS5003;34101;53.430;-2.224;2023-04-25T05:31:09;8;8;
46681;PMS5003;34101;53.430;-2.224;2023-04-25T05:33:37;8;8;
46681;PMS5003;34101;53.430;-2.224;2023-04-25T05:36:04;8;8;
46681;PMS5003;34101;53.430;-2.224;2023-04-25T05:38:33;8;8;
46681;PMS5003;34101;53.430;-2.224;2023-04-25T05:41:00;6;6;
46681;PMS5003;34101;53.430;-2.224;2023-04-25T05:43:28;8;8;
46681;PMS5003;34101;53.430;-2.224;2023-04-25T05:45:55;8;8;
46681;PMS5003;34101;53.430;-2.224;2023-04-25T05:48:23;9;8;
46681;PMS5003;34101;53.430;-2.224;2023-04-25T05:50:50;9;9;
46681;PMS5003;34101;53.430;-2.224;2023-04-25T05:53:18;10;6;
46681;PMS5003;34101;53.430;-2.224;2023-04-25T05:55:46;9;6;
46681;PMS5003;34101;53.430;-2.224;2023-04-25T05:58:14;10;9;
46681;PMS5003;34101;53.430;-2.224;2023-04-25T06:00:41;6;6;
46681;PMS5003;34101;53.430;-2.224;2023-04-25T06:03:09;9;9;
46681;PMS5003;34101;53.430;-2.224;2023-04-25T06:05:36;8;8;
46681;PMS5003;34101;53.430;-2.224;2023-04-25T06:08:04;9;6;
46681;PMS5003;34101;53.430;-2.224;2023-04-25T06:10:31;8;8;
46681;PMS5003;34101;53.430;-2.224;2023-04-25T06:12:58;9;9;
46681;PMS5003;34101;53.430;-2.224;2023-04-25T06:15:26;10;10;
46681;PMS5003;34101;53.430;-2.224;2023-04-25T06:17:53;9;9;
46681;PMS5003;34101;53.430;-2.224;2023-04-25T06:20:21;8;8;
46681;PMS5003;34101;53.430;-2.224;2023-04-25T06:22:48;15;11;
46681;PMS5003;34101;53.430;-2.224;2023-04-25T06:25:21;12;10;
46681;PMS5003;34101;53.430;-2.224;2023-04-25T06:27:48;9;9;
46681;PMS5003;34101;53.430;-2.224;2023-04-25T06:30:21;12;11;
46681;PMS5003;34101;53.430;-2.224;2023-04-25T06:32:49;10;10;
46681;PMS5003;34101;53.430;-2.224;2023-04-25T06:35:16;13;11;
46681;PMS5003;34101;53.430;-2.224;2023-04-25T06:37:43;12;7;
46681;PMS5003;34101;53.430;-2.224;2023-04-25T06:40:11;7;6;
46681;PMS5003;34101;53.430;-2.224;2023-04-25T06:42:38;10;7;
46681;PMS5003;34101;53.430;-2.224;2023-04-25T06:45:06;9;7;
46681;PMS5003;34101;53.430;-2.224;2023-04-25T06:47:34;10;10;
46681;PMS5003;34101;53.430;-2.224;2023-04-25T06:50:01;10;10;
46681;PMS5003;34101;53.430;-2.224;2023-04-25T06:52:29;12;12;
46681;PMS5003;34101;53.430;-2.224;2023-04-25T06:54:56;9;9;
46681;PMS5003;34101;53.430;-2.224;2023-04-25T06:57:23;10;9;
46681;PMS5003;34101;53.430;-2.224;2023-04-25T06:59:51;9;9;
46681;PMS5003;34101;53.430;-2.224;2023-04-25T07:02:23;10;10;
46681;PMS5003;34101;53.430;-2.224;2023-04-25T07:04:50;10;10;
46681;PMS5003;34101;53.430;-2.224;2023-04-25T07:07:17;8;7;
46681;PMS5003;34101;53.430;-2.224;2023-04-25T07:09:45;10;7;
46681;PMS5003;34101;53.430;-2.224;2023-04-25T07:12:12;10;10;
46681;PMS5003;34101;53.430;-2.224;2023-04-25T07:14:40;11;10;
46681;PMS5003;34101;53.430;-2.224;2023-04-25T07:17:07;10;10;
46681;PMS5003;34101;53.430;-2.224;2023-04-25T07:19:35;10;8;
46681;PMS5003;34101;53.430;-2.224;2023-04-25T07:22:02;7;7;
46681;PMS5003;34101;53.430;-2.224;2023-04-25T07:24:30;8;6;
46681;PMS5003;34101;53.430;-2.224;2023-04-25T07:26:57;6;6;
46681;PMS5003;34101;53.430;-2.224;2023-04-25T07:29:25;3;3;
46681;PMS5003;34101;53.430;-2.224;2023-04-25T07:31:52;7;5;
46681;PMS5003;34101;53.430;-2.224;2023-04-25T07:34:20;4;4;
46681;PMS5003;34101;53.430;-2.224;2023-04-25T07:36:47;6;4;
46681;PMS5003;34101;53.430;-2.224;2023-04-25T07:39:15;5;4;
46681;PMS5003;34101;53.430;-2.224;2023-04-25T07:41:42;4;3;
46681;PMS5003;34101;53.430;-2.224;2023-04-25T07:44:15;6;4;
46681;PMS5003;34101;53.430;-2.224;2023-04-25T07:46:47;4;4;
46681;PMS5003;34101;53.430;-2.224;2023-04-25T07:49:15;7;4;
46681;PMS5003;34101;53.430;-2.224;2023-04-25T07:51:42;6;4;
46681;PMS5003;34101;53.430;-2.224;2023-04-25T07:54:12;5;5;
46681;PMS5003;34101;53.430;-2.224;2023-04-25T07:56:40;4;4;
46681;PMS5003;34101;53.430;-2.224;2023-04-25T07:59:08;7;6;
46681;PMS5003;34101;53.430;-2.224;2023-04-25T08:01:35;8;7;
46681;PMS5003;34101;53.430;-2.224;2023-04-25T08:04:03;11;9;
46681;PMS5003;34101;53.430;-2.224;2023-04-25T08:06:30;6;5;
46681;PMS5003;34101;53.430;-2.224;2023-04-25T08:08:58;7;5;
46681;PMS5003;34101;53.430;-2.224;2023-04-25T08:11:25;7;7;
46681;PMS5003;34101;53.430;-2.224;2023-04-25T08:13:53;5;5;
46681;PMS5003;34101;53.430;-2.224;2023-04-25T08:16:23;5;5;
46681;PMS5003;34101;53.430;-2.224;2023-04-25T08:18:50;5;4;
46681;PMS5003;34101;53.430;-2.224;2023-04-25T08:21:18;4;3;
46681;PMS5003;34101;53.430;-2.224;2023-04-25T08:23:45;4;4;
46681;PMS5003;34101;53.430;-2.224;2023-04-25T08:26:13;1;1;
46681;PMS5003;34101;53.430;-2.224;2023-04-25T08:28:40;1;1;
46681;PMS5003;34101;53.430;-2.224;2023-04-25T08:31:08;3;3;
46681;PMS5003;34101;53.430;-2.224;2023-04-25T08:33:35;3;3;
46681;PMS5003;34101;53.430;-2.224;2023-04-25T08:36:03;2;2;
46681;PMS5003;34101;53.430;-2.224;2023-04-25T08:38:35;3;3;
46681;PMS5003;34101;53.430;-2.224;2023-04-25T08:41:03;4;3;
46681;PMS5003;34101;53.430;-2.224;2023-04-25T08:43:31;4;2;
46681;PMS5003;34101;53.430;-2.224;2023-04-25T08:45:59;2;2;
46681;PMS5003;34101;53.430;-2.224;2023-04-25T08:48:27;1;1;
46681;PMS5003;34101;53.430;-2.224;2023-04-25T08:50:55;3;3;
46681;PMS5003;34101;53.430;-2.224;2023-04-25T08:53:25;2;2;
46681;PMS5003;34101;53.430;-2.224;2023-04-25T08:55:53;4;4;
46681;PMS5003;34101;53.430;-2.224;2023-04-25T08:58:22;3;3;
46681;PMS5003;34101;53.430;-2.224;2023-04-25T09:00:50;3;3;
46681;PMS5003;34101;53.430;-2.224;2023-04-25T09:03:18;4;4;
46681;PMS5003;34101;53.430;-2.224;2023-04-25T09:05:46;5;3;
46681;PMS5003;34101;53.430;-2.224;2023-04-25T09:08:13;4;4;
46681;PMS5003;34101;53.430;-2.224;2023-04-25T09:10:40;3;3;
46681;PMS5003;34101;53.430;-2.224;2023-04-25T09:13:08;4;4;
46681;PMS5003;34101;53.430;-2.224;2023-04-25T09:15:46;4;4;
46681;PMS5003;34101;53.430;-2.224;2023-04-25T09:18:21;3;3;
46681;PMS5003;34101;53.430;-2.224;2023-04-25T09:20:50;3;3;
46681;PMS5003;34101;53.430;-2.224;2023-04-25T09:23:18;3;3;
46681;PMS5003;34101;53.430;-2.224;2023-04-25T09:25:47;2;2;
46681;PMS5003;34101;53.430;-2.224;2023-04-25T09:28:15;3;3;
46681;PMS5003;34101;53.430;-2.224;2023-04-25T09:30:42;3;3;
46681;PMS5003;34101;53.430;-2.224;2023-04-25T09:33:13;4;3;
46681;PMS5003;34101;53.430;-2.224;2023-04-25T09:35:41;5;5;
46681;PMS5003;34101;53.430;-2.224;2023-04-25T09:38:10;4;4;
46681;PMS5003;34101;53.430;-2.224;2023-04-25T09:40:40;4;4;
46681;PMS5003;34101;53.430;-2.224;2023-04-25T09:43:09;5;4;
46681;PMS5003;34101;53.430;-2.224;2023-04-25T09:45:41;5;5;
46681;PMS5003;34101;53.430;-2.224;2023-04-25T09:48:09;2;2;
46681;PMS5003;34101;53.430;-2.224;2023-04-25T09:50:37;3;3;
46681;PMS5003;34101;53.430;-2.224;2023-04-25T09:53:04;4;4;
46681;PMS5003;34101;53.430;-2.224;2023-04-25T09:55:32;5;3;
46681;PMS5003;34101;53.430;-2.224;2023-04-25T09:58:03;5;4;
46681;PMS5003;34101;53.430;-2.224;2023-04-25T10:00:32;2;2;
46681;PMS5003;34101;53.430;-2.224;2023-04-25T10:03:00;6;4;
46681;PMS5003;34101;53.430;-2.224;2023-04-25T10:05:28;5;4;
46681;PMS5003;34101;53.430;-2.224;2023-04-25T10:07:58;5;4;
46681;PMS5003;34101;53.430;-2.224;2023-04-25T10:10:28;3;3;
46681;PMS5003;34101;53.430;-2.224;2023-04-25T10:12:56;2;2;
46681;PMS5003;34101;53.430;-2.224;2023-04-25T10:15:24;3;3;
46681;PMS5003;34101;53.430;-2.224;2023-04-25T10:17:51;2;2;
46681;PMS5003;34101;53.430;-2.224;2023-04-25T10:20:20;2;2;
46681;PMS5003;34101;53.430;-2.224;2023-04-25T10:22:49;3;3;
46681;PMS5003;34101;53.430;-2.224;2023-04-25T10:25:20;5;3;
46681;PMS5003;34101;53.430;-2.224;2023-04-25T10:27:47;6;4;
46681;PMS5003;34101;53.430;-2.224;2023-04-25T10:30:17;3;3;
46681;PMS5003;34101;53.430;-2.224;2023-04-25T10:32:45;2;2;
46681;PMS5003;34101;53.430;-2.224;2023-04-25T10:35:14;5;3;
46681;PMS5003;34101;53.430;-2.224;2023-04-25T10:37:58;4;4;
46681;PMS5003;34101;53.430;-2.224;2023-04-25T10:40:27;3;3;
46681;PMS5003;34101;53.430;-2.224;2023-04-25T10:42:54;4;4;
46681;PMS5003;34101;53.430;-2.224;2023-04-25T10:45:22;2;2;
46681;PMS5003;34101;53.430;-2.224;2023-04-25T10:47:49;3;3;
46681;PMS5003;34101;53.430;-2.224;2023-04-25T10:50:17;4;4;
46681;PMS5003;34101;53.430;-2.224;2023-04-25T10:52:44;3;3;
46681;PMS5003;34101;53.430;-2.224;2023-04-25T10:55:12;3;3;
46681;PMS5003;34101;53.430;-2.224;2023-04-25T10:57:39;6;3;
46681;PMS5003;34101;53.430;-2.224;2023-04-25T11:00:09;3;3;
46681;PMS5003;34101;53.430;-2.224;2023-04-25T11:02:40;4;4;
46681;PMS5003;34101;53.430;-2.224;2023-04-25T11:05:08;1;1;
46681;PMS5003;34101;53.430;-2.224;2023-04-25T11:07:38;5;3;
46681;PMS5003;34101;53.430;-2.224;2023-04-25T11:10:12;3;3;
46681;PMS5003;34101;53.430;-2.224;2023-04-25T11:12:40;3;3;
46681;PMS5003;34101;53.430;-2.224;2023-04-25T11:15:08;3;3;
46681;PMS5003;34101;53.430;-2.224;2023-04-25T11:17:35;2;2;
46681;PMS5003;34101;53.430;-2.224;2023-04-25T11:20:02;5;4;
46681;PMS5003;34101;53.430;-2.224;2023-04-25T11:22:30;3;3;
46681;PMS5003;34101;53.430;-2.224;2023-04-25T11:24:58;5;4;
46681;PMS5003;34101;53.430;-2.224;2023-04-25T11:27:32;4;4;
46681;PMS5003;34101;53.430;-2.224;2023-04-25T11:29:59;2;2;
46681;PMS5003;34101;53.430;-2.224;2023-04-25T11:32:38;2;2;
46681;PMS5003;34101;53.430;-2.224;2023-04-25T11:35:06;3;3;
46681;PMS5003;34101;53.430;-2.224;2023-04-25T11:37:33;4;4;
46681;PMS5003;34101;53.430;-2.224;2023-04-25T11:40:01;2;2;
46681;PMS5003;34101;53.430;-2.224;2023-04-25T11:42:30;4;4;
46681;PMS5003;34101;53.430;-2.224;2023-04-25T11:44:57;4;4;
46681;PMS5003;34101;53.430;-2.224;2023-04-25T11:47:27;3;3;
46681;PMS5003;34101;53.430;-2.224;2023-04-25T11:49:57;3;3;
46681;PMS5003;34101;53.430;-2.224;2023-04-25T11:52:34;2;2;
46681;PMS5003;34101;53.430;-2.224;2023-04-25T11:55:04;2;2;
46681;PMS5003;34101;53.430;-2.224;2023-04-25T11:57:32;3;3;
46681;PMS5003;34101;53.430;-2.224;2023-04-25T12:00:09;3;3;
46681;PMS5003;34101;53.430;-2.224;2023-04-25T12:02:40;3;3;
46681;PMS5003;34101;53.430;-2.224;2023-04-25T12:05:08;4;3;
46681;PMS5003;34101;53.430;-2.224;2023-04-25T12:07:41;6;4;
46681;PMS5003;34101;53.430;-2.224;2023-04-25T12:10:10;4;4;
46681;PMS5003;34101;53.430;-2.224;2023-04-25T12:12:41;4;4;
46681;PMS5003;34101;53.430;-2.224;2023-04-25T12:15:10;3;3;
46681;PMS5003;34101;53.430;-2.224;2023-04-25T12:17:39;5;3;
46681;PMS5003;34101;53.430;-2.224;2023-04-25T12:20:07;3;3;
46681;PMS5003;34101;53.430;-2.224;2023-04-25T12:22:36;4;4;
46681;PMS5003;34101;53.430;-2.224;2023-04-25T12:25:03;5;5;
46681;PMS5003;34101;53.430;-2.224;2023-04-25T12:27:31;5;5;
46681;PMS5003;34101;53.430;-2.224;2023-04-25T12:29:59;7;7;
46681;PMS5003;34101;53.430;-2.224;2023-04-25T12:32:26;7;6;
46681;PMS5003;34101;53.430;-2.224;2023-04-25T12:34:54;7;4;
46681;PMS5003;34101;53.430;-2.224;2023-04-25T12:37:22;3;3;
46681;PMS5003;34101;53.430;-2.224;2023-04-25T12:39:49;4;4;
46681;PMS5003;34101;53.430;-2.224;2023-04-25T12:42:17;4;4;
46681;PMS5003;34101;53.430;-2.224;2023-04-25T12:44:44;7;7;
46681;PMS5003;34101;53.430;-2.224;2023-04-25T12:47:12;5;4;
46681;PMS5003;34101;53.430;-2.224;2023-04-25T12:49:40;6;6;
46681;PMS5003;34101;53.430;-2.224;2023-04-25T12:52:08;4;4;
46681;PMS5003;34101;53.430;-2.224;2023-04-25T12:54:35;4;4;
46681;PMS5003;34101;53.430;-2.224;2023-04-25T12:57:02;5;5;
46681;PMS5003;34101;53.430;-2.224;2023-04-25T12:59:30;6;6;
46681;PMS5003;34101;53.430;-2.224;2023-04-25T13:01:57;4;4;
46681;PMS5003;34101;53.430;-2.224;2023-04-25T13:04:25;5;5;
46681;PMS5003;34101;53.430;-2.224;2023-04-25T13:06:52;5;5;
46681;PMS5003;34101;53.430;-2.224;2023-04-25T13:09:21;9;7;
46681;PMS5003;34101;53.430;-2.224;2023-04-25T13:11:49;4;4;
46681;PMS5003;34101;53.430;-2.224;2023-04-25T13:14:16;7;7;
46681;PMS5003;34101;53.430;-2.224;2023-04-25T13:16:44;5;5;
46681;PMS5003;34101;53.430;-2.224;2023-04-25T13:19:11;7;6;
46681;PMS5003;34101;53.430;-2.224;2023-04-25T13:21:39;7;7;
46681;PMS5003;34101;53.430;-2.224;2023-04-25T13:24:06;4;4;
46681;PMS5003;34101;53.430;-2.224;2023-04-25T13:26:34;5;5;
46681;PMS5003;34101;53.430;-2.224;2023-04-25T13:29:01;5;5;
46681;PMS5003;34101;53.430;-2.224;2023-04-25T13:31:29;7;7;
46681;PMS5003;34101;53.430;-2.224;2023-04-25T13:33:56;8;6;
46681;PMS5003;34101;53.430;-2.224;2023-04-25T13:36:24;5;5;
46681;PMS5003;34101;53.430;-2.224;2023-04-25T13:38:51;6;6;
46681;PMS5003;34101;53.430;-2.224;2023-04-25T13:41:18;6;6;
46681;PMS5003;34101;53.430;-2.224;2023-04-25T13:43:46;6;6;
46681;PMS5003;34101;53.430;-2.224;2023-04-25T13:46:13;6;6;
46681;PMS5003;34101;53.430;-2.224;2023-04-25T13:48:41;6;6;
46681;PMS5003;34101;53.430;-2.224;2023-04-25T13:51:08;6;5;
46681;PMS5003;34101;53.430;-2.224;2023-04-25T13:53:36;7;7;
46681;PMS5003;34101;53.430;-2.224;2023-04-25T13:56:03;9;8;
46681;PMS5003;34101;53.430;-2.224;2023-04-25T13:58:31;5;5;
46681;PMS5003;34101;53.430;-2.224;2023-04-25T14:00:59;4;4;
46681;PMS5003;34101;53.430;-2.224;2023-04-25T14:03:27;6;6;
46681;PMS5003;34101;53.430;-2.224;2023-04-25T14:05:54;5;5;
46681;PMS5003;34101;53.430;-2.224;2023-04-25T14:08:22;7;7;
46681;PMS5003;34101;53.430;-2.224;2023-04-25T14:10:49;6;6;
46681;PMS5003;34101;53.430;-2.224;2023-04-25T14:13:17;6;6;
46681;PMS5003;34101;53.430;-2.224;2023-04-25T14:15:44;8;8;
46681;PMS5003;34101;53.430;-2.224;2023-04-25T14:18:12;11;9;
46681;PMS5003;34101;53.430;-2.224;2023-04-25T14:20:39;8;8;
46681;PMS5003;34101;53.430;-2.224;2023-04-25T14:23:07;6;6;
46681;PMS5003;34101;53.430;-2.224;2023-04-25T14:25:34;7;7;
46681;PMS5003;34101;53.430;-2.224;2023-04-25T14:28:02;8;8;
46681;PMS5003;34101;53.430;-2.224;2023-04-25T14:30:30;7;6;
46681;PMS5003;34101;53.430;-2.224;2023-04-25T14:33:02;7;7;
46681;PMS5003;34101;53.430;-2.224;2023-04-25T14:35:29;6;6;
46681;PMS5003;34101;53.430;-2.224;2023-04-25T14:37:57;9;8;
46681;PMS5003;34101;53.430;-2.224;2023-04-25T14:40:25;7;7;
46681;PMS5003;34101;53.430;-2.224;2023-04-25T14:42:57;8;8;
46681;PMS5003;34101;53.430;-2.224;2023-04-25T14:45:25;7;5;
46681;PMS5003;34101;53.430;-2.224;2023-04-25T14:47:53;8;7;
46681;PMS5003;34101;53.430;-2.224;2023-04-25T14:50:20;7;7;
46681;PMS5003;34101;53.430;-2.224;2023-04-25T14:52:48;6;6;
46681;PMS5003;34101;53.430;-2.224;2023-04-25T14:55:16;6;6;
46681;PMS5003;34101;53.430;-2.224;2023-04-25T14:57:43;6;4;
46681;PMS5003;34101;53.430;-2.224;2023-04-25T15:00:11;6;6;
46681;PMS5003;34101;53.430;-2.224;2023-04-25T15:02:40;6;6;
46681;PMS5003;34101;53.430;-2.224;2023-04-25T15:05:08;6;6;
46681;PMS5003;34101;53.430;-2.224;2023-04-25T15:07:35;6;6;
46681;PMS5003;34101;53.430;-2.224;2023-04-25T15:10:02;8;6;
46681;PMS5003;34101;53.430;-2.224;2023-04-25T15:12:30;8;6;
46681;PMS5003;34101;53.430;-2.224;2023-04-25T15:14:58;8;7;
46681;PMS5003;34101;53.430;-2.224;2023-04-25T15:17:25;5;5;
46681;PMS5003;34101;53.430;-2.224;2023-04-25T15:19:52;8;6;
46681;PMS5003;34101;53.430;-2.224;2023-04-25T15:22:20;7;7;
46681;PMS5003;34101;53.430;-2.224;2023-04-25T15:24:52;5;5;
46681;PMS5003;34101;53.430;-2.224;2023-04-25T15:27:20;6;6;
46681;PMS5003;34101;53.430;-2.224;2023-04-25T15:29:47;6;6;
46681;PMS5003;34101;53.430;-2.224;2023-04-25T15:32:15;8;8;
46681;PMS5003;34101;53.430;-2.224;2023-04-25T15:34:43;8;8;
46681;PMS5003;34101;53.430;-2.224;2023-04-25T15:37:10;8;8;
46681;PMS5003;34101;53.430;-2.224;2023-04-25T15:39:37;7;7;
46681;PMS5003;34101;53.430;-2.224;2023-04-25T15:42:05;8;8;
46681;PMS5003;34101;53.430;-2.224;2023-04-25T15:44:32;6;6;
46681;PMS5003;34101;53.430;-2.224;2023-04-25T15:47:00;5;5;
46681;PMS5003;34101;53.430;-2.224;2023-04-25T15:49:27;8;7;
46681;PMS5003;34101;53.430;-2.224;2023-04-25T15:51:54;6;6;
46681;PMS5003;34101;53.430;-2.224;2023-04-25T15:54:22;6;6;
46681;PMS5003;34101;53.430;-2.224;2023-04-25T15:56:49;9;9;
46681;PMS5003;34101;53.430;-2.224;2023-04-25T15:59:17;8;8;
46681;PMS5003;34101;53.430;-2.224;2023-04-25T16:01:44;11;8;
46681;PMS5003;34101;53.430;-2.224;2023-04-25T16:04:12;7;7;
46681;PMS5003;34101;53.430;-2.224;2023-04-25T16:06:39;8;8;
46681;PMS5003;34101;53.430;-2.224;2023-04-25T16:09:07;8;8;
46681;PMS5003;34101;53.430;-2.224;2023-04-25T16:11:34;6;6;
46681;PMS5003;34101;53.430;-2.224;2023-04-25T16:14:07;10;8;
46681;PMS5003;34101;53.430;-2.224;2023-04-25T16:16:34;8;8;
46681;PMS5003;34101;53.430;-2.224;2023-04-25T16:19:02;8;8;
46681;PMS5003;34101;53.430;-2.224;2023-04-25T16:21:29;9;8;
46681;PMS5003;34101;53.430;-2.224;2023-04-25T16:23:57;9;8;
46681;PMS5003;34101;53.430;-2.224;2023-04-25T16:26:24;8;7;
46681;PMS5003;34101;53.430;-2.224;2023-04-25T16:28:52;11;7;
46681;PMS5003;34101;53.430;-2.224;2023-04-25T16:31:19;8;8;
46681;PMS5003;34101;53.430;-2.224;2023-04-25T18:07:11;8;8;
46681;PMS5003;34101;53.430;-2.224;2023-04-25T18:09:44;6;6;